sensor_id;sensor_type;location;lat;lon;timestamp;temperature;humidity
33109;HTU21D;19481;51.118;6.940;2023-05-10T00:03:39;13.84;70.68
33109;HTU21D;19481;51.118;6.940;2023-05-10T00:08:41;13.85;71.05
33109;HTU21D;19481;51.118;6.940;2023-05-10T00:13:42;13.84;71.07
33109;HTU21D;19481;51.118;6.940;2023-05-10T00:18:45;13.93;70.52
33109;HTU21D;19481;51.118;6.940;2023-05-10T00:23:47;13.94;70.93
33109;HTU21D;19481;51.118;6.940;2023-05-10T00:28:48;13.94;70.82
33109;HTU21D;19481;51.118;6.940;2023-05-10T00:33:51;13.90;70.97
33109;HTU21D;19481;51.118;6.940;2023-05-10T00:38:53;13.93;71.01
33109;HTU21D;19481;51.118;6.940;2023-05-10T00:43:55;13.94;71.24
33109;HTU21D;19481;51.118;6.940;2023-05-10T00:48:58;13.98;70.93
33109;HTU21D;19481;51.118;6.940;2023-05-10T00:54:00;13.97;71.15
33109;HTU21D;19481;51.118;6.940;2023-05-10T00:59:02;13.94;71.32
33109;HTU21D;19481;51.118;6.940;2023-05-10T01:04:05;13.94;71.16
33109;HTU21D;19481;51.118;6.940;2023-05-10T01:09:06;13.92;71.46
33109;HTU21D;19481;51.118;6.940;2023-05-10T01:14:08;13.91;71.58
33109;HTU21D;19481;51.118;6.940;2023-05-10T01:19:16;13.91;71.47
33109;HTU21D;19481;51.118;6.940;2023-05-10T01:30:05;13.90;72.30
33109;HTU21D;19481;51.118;6.940;2023-05-10T01:35:17;13.80;73.26
33109;HTU21D;19481;51.118;6.940;2023-05-10T01:40:28;13.78;71.98
33109;HTU21D;19481;51.118;6.940;2023-05-10T01:45:36;13.77;71.97
33109;HTU21D;19481;51.118;6.940;2023-05-10T01:50:43;13.74;71.96
33109;HTU21D;19481;51.118;6.940;2023-05-10T01:55:47;13.62;72.08
33109;HTU21D;19481;51.118;6.940;2023-05-10T02:00:50;13.65;71.90
33109;HTU21D;19481;51.118;6.940;2023-05-10T02:05:55;13.63;71.84
33109;HTU21D;19481;51.118;6.940;2023-05-10T02:10:58;13.59;71.93
33109;HTU21D;19481;51.118;6.940;2023-05-10T02:16:01;13.66;71.60
33109;HTU21D;19481;51.118;6.940;2023-05-10T02:21:06;13.63;71.70
33109;HTU21D;19481;51.118;6.940;2023-05-10T02:26:08;13.61;71.95
33109;HTU21D;19481;51.118;6.940;2023-05-10T02:31:10;13.60;71.90
33109;HTU21D;19481;51.118;6.940;2023-05-10T02:36:14;13.58;71.96
33109;HTU21D;19481;51.118;6.940;2023-05-10T02:41:16;13.60;71.84
33109;HTU21D;19481;51.118;6.940;2023-05-10T02:46:19;13.61;71.86
33109;HTU21D;19481;51.118;6.940;2023-05-10T02:51:25;13.60;71.90
33109;HTU21D;19481;51.118;6.940;2023-05-10T02:56:32;13.61;71.93
33109;HTU21D;19481;51.118;6.940;2023-05-10T03:01:34;13.63;71.90
33109;HTU21D;19481;51.118;6.940;2023-05-10T03:06:37;13.65;71.88
33109;HTU21D;19481;51.118;6.940;2023-05-10T03:11:47;13.63;71.95
33109;HTU21D;19481;51.118;6.940;2023-05-10T03:17:00;13.73;71.81
33109;HTU21D;19481;51.118;6.940;2023-05-10T03:22:08;13.73;71.77
33109;HTU21D;19481;51.118;6.940;2023-05-10T03:27:12;13.70;71.90
33109;HTU21D;19481;51.118;6.940;2023-05-10T03:32:15;13.70;72.03
33109;HTU21D;19481;51.118;6.940;2023-05-10T03:37:18;13.68;72.08
33109;HTU21D;19481;51.118;6.940;2023-05-10T03:42:20;13.64;72.37
33109;HTU21D;19481;51.118;6.940;2023-05-10T03:47:21;13.64;72.32
33109;HTU21D;19481;51.118;6.940;2023-05-10T03:52:24;13.67;72.00
33109;HTU21D;19481;51.118;6.940;2023-05-10T03:57:26;13.69;72.06
33109;HTU21D;19481;51.118;6.940;2023-05-10T04:02:27;13.73;72.00
33109;HTU21D;19481;51.118;6.940;2023-05-10T04:07:31;13.74;71.94
33109;HTU21D;19481;51.118;6.940;2023-05-10T04:12:33;13.74;72.04
33109;HTU21D;19481;51.118;6.940;2023-05-10T04:17:34;13.77;72.01
33109;HTU21D;19481;51.118;6.940;2023-05-10T04:22:37;13.76;72.11
33109;HTU21D;19481;51.118;6.940;2023-05-10T04:27:39;13.84;71.89
33109;HTU21D;19481;51.118;6.940;2023-05-10T04:32:40;13.86;71.83
33109;HTU21D;19481;51.118;6.940;2023-05-10T04:37:43;13.91;71.75
33109;HTU21D;19481;51.118;6.940;2023-05-10T04:42:45;13.89;72.09
33109;HTU21D;19481;51.118;6.940;2023-05-10T04:47:46;13.90;72.10
33109;HTU21D;19481;51.118;6.940;2023-05-10T04:52:49;13.96;71.77
33109;HTU21D;19481;51.118;6.940;2023-05-10T04:57:51;14.01;71.85
33109;HTU21D;19481;51.118;6.940;2023-05-10T05:02:52;14.10;71.67
33109;HTU21D;19481;51.118;6.940;2023-05-10T05:07:55;14.05;71.87
33109;HTU21D;19481;51.118;6.940;2023-05-10T05:12:57;14.08;71.94
33109;HTU21D;19481;51.118;6.940;2023-05-10T05:17:58;14.17;72.16
33109;HTU21D;19481;51.118;6.940;2023-05-10T05:23:01;14.21;71.59
33109;HTU21D;19481;51.118;6.940;2023-05-10T05:28:03;14.30;71.46
33109;HTU21D;19481;51.118;6.940;2023-05-10T05:33:05;14.45;71.03
33109;HTU21D;19481;51.118;6.940;2023-05-10T05:38:08;14.38;71.38
33109;HTU21D;19481;51.118;6.940;2023-05-10T05:43:10;14.34;71.58
33109;HTU21D;19481;51.118;6.940;2023-05-10T05:48:12;14.35;71.42
33109;HTU21D;19481;51.118;6.940;2023-05-10T05:53:15;14.29;71.42
33109;HTU21D;19481;51.118;6.940;2023-05-10T05:58:16;14.24;71.55
33109;HTU21D;19481;51.118;6.940;2023-05-10T06:03:18;14.08;72.00
33109;HTU21D;19481;51.118;6.940;2023-05-10T06:08:21;14.10;71.75
33109;HTU21D;19481;51.118;6.940;2023-05-10T06:13:23;14.09;71.84
33109;HTU21D;19481;51.118;6.940;2023-05-10T06:18:24;14.12;71.55
33109;HTU21D;19481;51.118;6.940;2023-05-10T06:23:27;14.14;71.34
33109;HTU21D;19481;51.118;6.940;2023-05-10T06:28:29;14.18;71.33
33109;HTU21D;19481;51.118;6.940;2023-05-10T06:33:32;14.20;71.42
33109;HTU21D;19481;51.118;6.940;2023-05-10T06:38:35;14.23;71.26
33109;HTU21D;19481;51.118;6.940;2023-05-10T06:43:37;14.21;71.38
33109;HTU21D;19481;51.118;6.940;2023-05-10T06:48:41;14.11;71.75
33109;HTU21D;19481;51.118;6.940;2023-05-10T06:53:44;14.01;71.96
33109;HTU21D;19481;51.118;6.940;2023-05-10T06:58:45;13.98;71.96
33109;HTU21D;19481;51.118;6.940;2023-05-10T07:03:47;13.94;72.03
33109;HTU21D;19481;51.118;6.940;2023-05-10T07:08:50;13.94;72.00
33109;HTU21D;19481;51.118;6.940;2023-05-10T07:13:51;14.06;71.70
33109;HTU21D;19481;51.118;6.940;2023-05-10T07:18:53;14.20;71.42
33109;HTU21D;19481;51.118;6.940;2023-05-10T07:23:56;14.45;70.63
33109;HTU21D;19481;51.118;6.940;2023-05-10T07:28:58;14.57;70.64
33109;HTU21D;19481;51.118;6.940;2023-05-10T07:34:00;14.63;70.49
33109;HTU21D;19481;51.118;6.940;2023-05-10T07:39:03;14.77;70.24
33109;HTU21D;19481;51.118;6.940;2023-05-10T07:44:05;14.85;70.30
33109;HTU21D;19481;51.118;6.940;2023-05-10T07:49:07;15.04;69.92
33109;HTU21D;19481;51.118;6.940;2023-05-10T07:54:10;15.10;69.93
33109;HTU21D;19481;51.118;6.940;2023-05-10T07:59:15;15.22;69.64
33109;HTU21D;19481;51.118;6.940;2023-05-10T08:04:17;15.45;69.15
33109;HTU21D;19481;51.118;6.940;2023-05-10T08:09:20;15.58;68.91
33109;HTU21D;19481;51.118;6.940;2023-05-10T08:14:24;15.71;68.71
33109;HTU21D;19481;51.118;6.940;2023-05-10T08:19:25;15.38;70.03
33109;HTU21D;19481;51.118;6.940;2023-05-10T08:24:28;15.39;69.94
33109;HTU21D;19481;51.118;6.940;2023-05-10T08:29:30;15.57;69.45
33109;HTU21D;19481;51.118;6.940;2023-05-10T08:34:31;15.62;69.39
33109;HTU21D;19481;51.118;6.940;2023-05-10T08:39:35;15.62;69.30
33109;HTU21D;19481;51.118;6.940;2023-05-10T08:44:37;15.55;69.47
33109;HTU21D;19481;51.118;6.940;2023-05-10T08:49:39;15.61;69.04
33109;HTU21D;19481;51.118;6.940;2023-05-10T08:54:43;15.76;68.55
33109;HTU21D;19481;51.118;6.940;2023-05-10T08:59:45;15.98;67.99
33109;HTU21D;19481;51.118;6.940;2023-05-10T09:04:46;16.18;67.47
33109;HTU21D;19481;51.118;6.940;2023-05-10T09:09:50;16.40;67.01
33109;HTU21D;19481;51.118;6.940;2023-05-10T09:14:54;16.19;67.98
33109;HTU21D;19481;51.118;6.940;2023-05-10T09:19:59;16.11;68.33
33109;HTU21D;19481;51.118;6.940;2023-05-10T09:25:07;15.98;68.54
33109;HTU21D;19481;51.118;6.940;2023-05-10T09:30:10;16.12;68.07
33109;HTU21D;19481;51.118;6.940;2023-05-10T09:35:13;15.97;68.65
33109;HTU21D;19481;51.118;6.940;2023-05-10T09:40:18;15.73;69.27
33109;HTU21D;19481;51.118;6.940;2023-05-10T09:45:20;15.44;69.83
33109;HTU21D;19481;51.118;6.940;2023-05-10T09:50:22;15.17;70.36
33109;HTU21D;19481;51.118;6.940;2023-05-10T09:55:38;14.99;70.64
33109;HTU21D;19481;51.118;6.940;2023-05-10T10:00:41;14.92;70.85
33109;HTU21D;19481;51.118;6.940;2023-05-10T10:05:43;14.97;70.42
33109;HTU21D;19481;51.118;6.940;2023-05-10T10:10:46;15.07;70.08
33109;HTU21D;19481;51.118;6.940;2023-05-10T10:15:48;15.38;69.08
33109;HTU21D;19481;51.118;6.940;2023-05-10T10:20:51;15.38;69.23
33109;HTU21D;19481;51.118;6.940;2023-05-10T10:25:55;15.26;69.68
33109;HTU21D;19481;51.118;6.940;2023-05-10T10:31:01;15.46;69.04
33109;HTU21D;19481;51.118;6.940;2023-05-10T10:36:04;15.55;68.75
33109;HTU21D;19481;51.118;6.940;2023-05-10T10:41:27;15.60;69.20
33109;HTU21D;19481;51.118;6.940;2023-05-10T10:46:29;15.69;68.72
33109;HTU21D;19481;51.118;6.940;2023-05-10T10:51:30;15.93;68.03
33109;HTU21D;19481;51.118;6.940;2023-05-10T10:56:33;16.44;66.56
33109;HTU21D;19481;51.118;6.940;2023-05-10T11:01:35;16.92;65.55
33109;HTU21D;19481;51.118;6.940;2023-05-10T11:06:36;17.15;65.51
33109;HTU21D;19481;51.118;6.940;2023-05-10T11:11:51;16.93;65.15
33109;HTU21D;19481;51.118;6.940;2023-05-10T11:16:55;16.88;66.61
33109;HTU21D;19481;51.118;6.940;2023-05-10T11:22:12;17.35;65.22
33109;HTU21D;19481;51.118;6.940;2023-05-10T11:27:15;17.62;64.67
33109;HTU21D;19481;51.118;6.940;2023-05-10T11:32:19;17.97;64.06
33109;HTU21D;19481;51.118;6.940;2023-05-10T11:37:20;17.63;65.47
33109;HTU21D;19481;51.118;6.940;2023-05-10T11:42:23;17.37;66.13
33109;HTU21D;19481;51.118;6.940;2023-05-10T11:47:25;17.73;64.99
33109;HTU21D;19481;51.118;6.940;2023-05-10T11:52:27;17.94;64.59
33109;HTU21D;19481;51.118;6.940;2023-05-10T11:57:30;17.44;65.96
33109;HTU21D;19481;51.118;6.940;2023-05-10T12:02:32;17.11;66.47
33109;HTU21D;19481;51.118;6.940;2023-05-10T12:07:34;16.81;66.98
33109;HTU21D;19481;51.118;6.940;2023-05-10T12:12:41;16.60;66.98
33109;HTU21D;19481;51.118;6.940;2023-05-10T12:17:43;16.55;66.88
33109;HTU21D;19481;51.118;6.940;2023-05-10T12:22:47;16.61;66.65
33109;HTU21D;19481;51.118;6.940;2023-05-10T12:27:51;16.78;65.98
33109;HTU21D;19481;51.118;6.940;2023-05-10T12:32:53;17.20;64.93
33109;HTU21D;19481;51.118;6.940;2023-05-10T12:37:55;17.69;63.68
33109;HTU21D;19481;51.118;6.940;2023-05-10T12:42:58;17.98;63.21
33109;HTU21D;19481;51.118;6.940;2023-05-10T12:48:00;17.98;63.69
33109;HTU21D;19481;51.118;6.940;2023-05-10T12:53:01;17.51;65.33
33109;HTU21D;19481;51.118;6.940;2023-05-10T12:58:04;17.58;65.04
33109;HTU21D;19481;51.118;6.940;2023-05-10T13:03:06;17.34;65.74
33109;HTU21D;19481;51.118;6.940;2023-05-10T13:08:07;17.13;66.01
33109;HTU21D;19481;51.118;6.940;2023-05-10T13:13:10;17.10;65.72
33109;HTU21D;19481;51.118;6.940;2023-05-10T13:18:12;17.03;65.69
33109;HTU21D;19481;51.118;6.940;2023-05-10T13:23:13;16.91;65.75
33109;HTU21D;19481;51.118;6.940;2023-05-10T13:28:16;16.84;65.96
33109;HTU21D;19481;51.118;6.940;2023-05-10T13:33:18;16.92;65.62
33109;HTU21D;19481;51.118;6.940;2023-05-10T13:38:19;16.86;65.79
33109;HTU21D;19481;51.118;6.940;2023-05-10T13:43:24;16.95;65.33
33109;HTU21D;19481;51.118;6.940;2023-05-10T13:48:26;17.02;65.16
33109;HTU21D;19481;51.118;6.940;2023-05-10T13:53:28;16.99;65.36
33109;HTU21D;19481;51.118;6.940;2023-05-10T13:58:31;17.04;65.29
33109;HTU21D;19481;51.118;6.940;2023-05-10T14:03:32;17.17;64.87
33109;HTU21D;19481;51.118;6.940;2023-05-10T14:08:35;17.34;64.40
33109;HTU21D;19481;51.118;6.940;2023-05-10T14:13:38;17.34;64.25
33109;HTU21D;19481;51.118;6.940;2023-05-10T14:18:39;17.39;64.18
33109;HTU21D;19481;51.118;6.940;2023-05-10T14:23:41;17.14;64.98
33109;HTU21D;19481;51.118;6.940;2023-05-10T14:28:44;16.88;65.67
33109;HTU21D;19481;51.118;6.940;2023-05-10T14:33:46;16.81;65.69
33109;HTU21D;19481;51.118;6.940;2023-05-10T14:38:47;16.77;65.63
33109;HTU21D;19481;51.118;6.940;2023-05-10T14:43:50;16.67;65.55
33109;HTU21D;19481;51.118;6.940;2023-05-10T14:48:52;16.58;65.44
33109;HTU21D;19481;51.118;6.940;2023-05-10T14:53:54;16.63;65.00
33109;HTU21D;19481;51.118;6.940;2023-05-10T14:58:57;16.92;63.98
33109;HTU21D;19481;51.118;6.940;2023-05-10T15:03:59;17.21;63.09
33109;HTU21D;19481;51.118;6.940;2023-05-10T15:09:01;17.63;62.06
33109;HTU21D;19481;51.118;6.940;2023-05-10T15:14:05;18.02;61.15
33109;HTU21D;19481;51.118;6.940;2023-05-10T15:19:06;18.33;60.68
33109;HTU21D;19481;51.118;6.940;2023-05-10T15:24:08;18.72;60.05
33109;HTU21D;19481;51.118;6.940;2023-05-10T15:29:11;18.91;60.18
33109;HTU21D;19481;51.118;6.940;2023-05-10T15:34:19;18.94;60.41
33109;HTU21D;19481;51.118;6.940;2023-05-10T15:39:21;18.85;60.80
33109;HTU21D;19481;51.118;6.940;2023-05-10T15:44:24;18.68;61.44
33109;HTU21D;19481;51.118;6.940;2023-05-10T15:49:26;18.56;61.60
33109;HTU21D;19481;51.118;6.940;2023-05-10T15:54:27;18.44;61.85
33109;HTU21D;19481;51.118;6.940;2023-05-10T15:59:32;18.43;61.50
33109;HTU21D;19481;51.118;6.940;2023-05-10T16:04:35;18.51;61.24
33109;HTU21D;19481;51.118;6.940;2023-05-10T16:09:37;18.42;61.43
33109;HTU21D;19481;51.118;6.940;2023-05-10T16:14:40;18.48;61.14
33109;HTU21D;19481;51.118;6.940;2023-05-10T16:19:41;18.59;60.67
33109;HTU21D;19481;51.118;6.940;2023-05-10T16:24:43;19.08;59.25
33109;HTU21D;19481;51.118;6.940;2023-05-10T16:29:46;19.33;58.64
33109;HTU21D;19481;51.118;6.940;2023-05-10T16:34:48;19.18;59.33
33109;HTU21D;19481;51.118;6.940;2023-05-10T16:39:50;19.20;59.18
33109;HTU21D;19481;51.118;6.940;2023-05-10T16:44:54;19.05;59.16
33109;HTU21D;19481;51.118;6.940;2023-05-10T16:49:55;18.92;59.65
33109;HTU21D;19481;51.118;6.940;2023-05-10T16:54:57;18.79;59.83
33109;HTU21D;19481;51.118;6.940;2023-05-10T17:00:00;18.80;59.67
33109;HTU21D;19481;51.118;6.940;2023-05-10T17:05:03;18.47;60.31
33109;HTU21D;19481;51.118;6.940;2023-05-10T17:10:06;18.35;60.10
33109;HTU21D;19481;51.118;6.940;2023-05-10T17:15:09;18.23;60.60
33109;HTU21D;19481;51.118;6.940;2023-05-10T17:20:11;18.13;60.60
33109;HTU21D;19481;51.118;6.940;2023-05-10T17:25:13;17.80;61.33
33109;HTU21D;19481;51.118;6.940;2023-05-10T17:30:16;17.48;61.82
33109;HTU21D;19481;51.118;6.940;2023-05-10T17:35:24;17.36;61.69
33109;HTU21D;19481;51.118;6.940;2023-05-10T17:40:26;17.30;61.55
33109;HTU21D;19481;51.118;6.940;2023-05-10T17:45:29;17.11;61.55
33109;HTU21D;19481;51.118;6.940;2023-05-10T17:50:30;17.01;61.57
33109;HTU21D;19481;51.118;6.940;2023-05-10T17:55:32;16.86;61.85
33109;HTU21D;19481;51.118;6.940;2023-05-10T18:00:35;16.76;61.82
33109;HTU21D;19481;51.118;6.940;2023-05-10T18:05:37;16.50;62.22
33109;HTU21D;19481;51.118;6.940;2023-05-10T18:10:39;16.35;62.37
33109;HTU21D;19481;51.118;6.940;2023-05-10T18:15:42;16.22;62.66
33109;HTU21D;19481;51.118;6.940;2023-05-10T18:20:44;16.01;63.26
33109;HTU21D;19481;51.118;6.940;2023-05-10T18:25:46;15.91;63.44
33109;HTU21D;19481;51.118;6.940;2023-05-10T18:30:49;15.69;63.84
33109;HTU21D;19481;51.118;6.940;2023-05-10T18:35:51;15.45;64.28
33109;HTU21D;19481;51.118;6.940;2023-05-10T18:40:52;15.11;65.32
33109;HTU21D;19481;51.118;6.940;2023-05-10T18:45:55;14.92;65.74
33109;HTU21D;19481;51.118;6.940;2023-05-10T18:50:57;14.93;65.54
33109;HTU21D;19481;51.118;6.940;2023-05-10T18:55:59;14.81;66.04
33109;HTU21D;19481;51.118;6.940;2023-05-10T19:01:02;14.60;66.63
33109;HTU21D;19481;51.118;6.940;2023-05-10T19:06:03;14.48;66.91
33109;HTU21D;19481;51.118;6.940;2023-05-10T19:11:05;14.45;66.69
33109;HTU21D;19481;51.118;6.940;2023-05-10T19:16:11;14.44;66.66
33109;HTU21D;19481;51.118;6.940;2023-05-10T19:21:14;14.29;72.19
33109;HTU21D;19481;51.118;6.940;2023-05-10T19:26:16;14.27;67.23
33109;HTU21D;19481;51.118;6.940;2023-05-10T19:31:19;14.22;67.08
33109;HTU21D;19481;51.118;6.940;2023-05-10T19:36:21;14.23;67.01
33109;HTU21D;19481;51.118;6.940;2023-05-10T19:41:23;14.22;66.92
33109;HTU21D;19481;51.118;6.940;2023-05-10T19:46:26;14.11;67.19
33109;HTU21D;19481;51.118;6.940;2023-05-10T19:51:28;14.05;67.49
33109;HTU21D;19481;51.118;6.940;2023-05-10T19:56:29;13.93;68.24
33109;HTU21D;19481;51.118;6.940;2023-05-10T20:01:32;13.89;68.08
33109;HTU21D;19481;51.118;6.940;2023-05-10T20:06:34;13.81;68.56
33109;HTU21D;19481;51.118;6.940;2023-05-10T20:11:35;13.83;68.66
33109;HTU21D;19481;51.118;6.940;2023-05-10T20:16:38;13.77;68.71
33109;HTU21D;19481;51.118;6.940;2023-05-10T20:21:40;13.76;68.52
33109;HTU21D;19481;51.118;6.940;2023-05-10T20:26:42;13.84;68.07
33109;HTU21D;19481;51.118;6.940;2023-05-10T20:31:45;13.83;68.10
33109;HTU21D;19481;51.118;6.940;2023-05-10T20:36:47;13.73;68.77
33109;HTU21D;19481;51.118;6.940;2023-05-10T20:41:48;13.71;68.63
33109;HTU21D;19481;51.118;6.940;2023-05-10T20:46:51;13.68;68.62
33109;HTU21D;19481;51.118;6.940;2023-05-10T20:51:53;13.66;68.80
33109;HTU21D;19481;51.118;6.940;2023-05-10T20:56:55;13.67;68.83
33109;HTU21D;19481;51.118;6.940;2023-05-10T21:01:58;13.69;68.62
33109;HTU21D;19481;51.118;6.940;2023-05-10T21:06:59;13.61;69.39
33109;HTU21D;19481;51.118;6.940;2023-05-10T21:12:01;13.54;69.48
33109;HTU21D;19481;51.118;6.940;2023-05-10T21:17:04;13.59;68.80
33109;HTU21D;19481;51.118;6.940;2023-05-10T21:22:06;13.55;68.97
33109;HTU21D;19481;51.118;6.940;2023-05-10T21:27:08;13.50;69.18
33109;HTU21D;19481;51.118;6.940;2023-05-10T21:32:11;13.46;69.28
33109;HTU21D;19481;51.118;6.940;2023-05-10T21:37:14;13.40;69.78
33109;HTU21D;19481;51.118;6.940;2023-05-10T21:42:16;13.44;69.81
33109;HTU21D;19481;51.118;6.940;2023-05-10T21:47:19;13.47;69.49
33109;HTU21D;19481;51.118;6.940;2023-05-10T21:52:20;13.41;69.71
33109;HTU21D;19481;51.118;6.940;2023-05-10T21:57:22;13.49;69.43
33109;HTU21D;19481;51.118;6.940;2023-05-10T22:02:25;13.44;69.57
33109;HTU21D;19481;51.118;6.940;2023-05-10T22:07:29;13.41;69.58
33109;HTU21D;19481;51.118;6.940;2023-05-10T22:12:30;13.46;69.58
33109;HTU21D;19481;51.118;6.940;2023-05-10T22:17:33;13.46;69.54
33109;HTU21D;19481;51.118;6.940;2023-05-10T22:22:35;13.45;69.62
33109;HTU21D;19481;51.118;6.940;2023-05-10T22:27:37;13.49;69.49
33109;HTU21D;19481;51.118;6.940;2023-05-10T22:32:40;13.47;69.57
33109;HTU21D;19481;51.118;6.940;2023-05-10T22:37:41;13.51;69.52
33109;HTU21D;19481;51.118;6.940;2023-05-10T22:42:43;13.52;69.45
33109;HTU21D;19481;51.118;6.940;2023-05-10T22:47:47;13.51;69.54
33109;HTU21D;19481;51.118;6.940;2023-05-10T22:52:48;13.49;69.86
33109;HTU21D;19481;51.118;6.940;2023-05-10T22:57:51;13.46;70.00
33109;HTU21D;19481;51.118;6.940;2023-05-10T23:02:54;13.43;70.07
33109;HTU21D;19481;51.118;6.940;2023-05-10T23:07:55;13.40;70.32
33109;HTU21D;19481;51.118;6.940;2023-05-10T23:12:57;13.37;70.44
33109;HTU21D;19481;51.118;6.940;2023-05-10T23:18:00;13.40;70.39
33109;HTU21D;19481;51.118;6.940;2023-05-10T23:23:01;13.40;70.48
33109;HTU21D;19481;51.118;6.940;2023-05-10T23:28:04;13.40;70.42
33109;HTU21D;19481;51.118;6.940;2023-05-10T23:33:07;13.36;70.52
33109;HTU21D;19481;51.118;6.940;2023-05-10T23:38:08;13.33;70.63
33109;HTU21D;19481;51.118;6.940;2023-05-10T23:43:10;13.30;70.81
33109;HTU21D;19481;51.118;6.940;2023-05-10T23:48:15;13.27;70.94
33109;HTU21D;19481;51.118;6.940;2023-05-10T23:53:16;13.25;71.07
33109;HTU21D;19481;51.118;6.940;2023-05-10T23:58:18;13.23;71.21
